Time;durP1;ratioP1;P1;durP2;ratioP2;P2;SDS_P1;SDS_P2;PMS_P1;PMS_P2;Temp;Humidity;BMP_temperature;BMP_pressure;BME280_temperature;BME280_humidity;BME280_pressure;Samples;Min_cycle;Max_cycle;Signal;HPM_P1;HPM_P2
2020/12/01 16:06:40;;;;;;;177.10;94.75;;;;;;;2.21;56.16;94108.56;5076635;27;20406;-84
2020/12/01 16:09:21;;;;;;;158.45;86.88;;;;;;;2.09;56.35;94096.38;5059202;28;20066;-84
2020/12/01 16:11:49;;;;;;;147.43;79.43;;;;;;;2.16;55.84;94099.63;5069869;28;20098;-85
2020/12/01 16:14:21;;;;;;;145.35;79.10;;;;;;;2.04;55.68;94091.06;5058276;28;20045;-84
2020/12/01 16:16:55;;;;;;;133.88;75.82;;;;;;;1.94;55.71;94080.41;5055291;28;20804;-83
2020/12/01 16:19:26;;;;;;;157.17;84.17;;;;;;;2.02;55.67;94093.06;5054144;28;20129;-85
2020/12/01 16:21:55;;;;;;;193.30;103.88;;;;;;;1.92;55.62;94077.22;5052645;28;20282;-84
2020/12/01 16:24:24;;;;;;;184.82;99.88;;;;;;;1.86;55.34;94078.13;5055754;28;20124;-84
2020/12/01 16:27:08;;;;;;;181.40;102.65;;;;;;;1.98;55.71;94091.97;5057642;28;20017;-84
2020/12/01 16:29:49;;;;;;;163.57;93.68;;;;;;;1.95;55.99;94092.41;5069755;28;20063;-84
2020/12/01 16:32:21;;;;;;;156.60;86.80;;;;;;;1.88;55.67;94096.94;5051726;28;20413;-84
2020/12/01 16:34:47;;;;;;;172.98;89.85;;;;;;;1.90;55.41;94105.34;5049826;28;20139;-84
2020/12/01 16:37:12;;;;;;;180.30;96.35;;;;;;;1.85;54.93;94113.03;5055533;28;20528;-84
2020/12/01 16:39:53;;;;;;;179.30;93.65;;;;;;;1.85;55.07;94115.66;5055592;28;20098;-84
2020/12/01 16:42:27;;;;;;;178.82;91.95;;;;;;;1.83;54.70;94115.06;5057214;28;20495;-84
2020/12/01 16:45:00;;;;;;;203.07;105.13;;;;;;;1.76;55.33;94116.97;5037581;28;20104;-84
2020/12/01 16:47:32;;;;;;;199.45;100.80;;;;;;;1.73;56.12;94126.06;5047814;28;20048;-84
2020/12/01 16:50:30;;;;;;;195.55;103.07;;;;;;;1.70;56.35;94115.31;5034690;28;20037;-85
2020/12/01 16:53:18;;;;;;;185.55;97.75;;;;;;;1.66;56.19;94117.53;5004183;28;20046;-84
2020/12/01 16:55:57;;;;;;;183.93;94.82;;;;;;;1.67;55.79;94113.13;5033023;28;20098;-84
2020/12/01 16:58:42;;;;;;;200.10;98.55;;;;;;;1.55;55.65;94094.13;5037761;28;20059;-84
2020/12/01 17:01:29;;;;;;;182.73;92.88;;;;;;;1.61;56.17;94111.44;5031996;28;20560;-84
2020/12/01 17:04:06;;;;;;;142.65;74.03;;;;;;;1.59;55.88;94113.47;5033967;28;20413;-84
2020/12/01 17:06:32;;;;;;;123.53;67.95;;;;;;;1.56;55.88;94119.94;5034500;28;20049;-84
2020/12/01 17:08:58;;;;;;;122.53;64.40;;;;;;;1.46;54.83;94113.69;5037512;28;20017;-85
2020/12/01 17:11:32;;;;;;;139.15;75.07;;;;;;;1.32;55.01;94105.28;5033719;28;20041;-85
2020/12/01 17:14:08;;;;;;;139.05;72.30;;;;;;;1.34;54.96;94120.69;5036516;28;20064;-84
2020/12/01 17:16:56;;;;;;;134.20;73.07;;;;;;;1.46;55.20;94134.53;5026551;28;20045;-85
2020/12/01 17:19:23;;;;;;;148.00;79.13;;;;;;;1.37;54.88;94130.66;5035577;28;20504;-84
2020/12/01 17:21:51;;;;;;;205.63;113.43;;;;;;;1.24;55.39;94124.63;5022507;28;20033;-85
2020/12/01 17:24:18;;;;;;;179.05;99.93;;;;;;;1.24;55.74;94124.63;5020614;28;20370;-84
2020/12/01 17:26:48;;;;;;;178.95;98.25;;;;;;;1.26;55.87;94127.81;5024907;28;20390;-84
2020/12/01 17:29:21;;;;;;;187.00;101.13;;;;;;;1.23;55.74;94124.84;5021400;28;20045;-85
2020/12/01 17:31:53;;;;;;;175.43;100.28;;;;;;;1.35;55.46;94132.69;5037904;28;20156;-85
2020/12/01 17:34:32;;;;;;;158.32;86.35;;;;;;;1.25;55.27;94125.44;5020739;28;20047;-84
2020/12/01 17:37:02;;;;;;;137.35;74.20;;;;;;;1.30;55.19;94141.16;5035352;28;20446;-85
2020/12/01 17:39:36;;;;;;;128.18;64.95;;;;;;;1.16;55.36;94130.16;5006568;28;20030;-85
2020/12/01 17:42:41;;;;;;;132.75;70.20;;;;;;;1.24;55.07;94142.84;5022600;28;20387;-84
2020/12/01 17:45:30;;;;;;;134.98;73.18;;;;;;;1.13;54.96;94141.00;5024096;28;20367;-84
2020/12/01 17:48:30;;;;;;;144.02;77.72;;;;;;;1.14;55.12;94153.00;5020245;28;20335;-85
2020/12/01 17:51:05;;;;;;;144.73;80.68;;;;;;;1.01;55.01;94134.97;5021973;28;20531;-85
2020/12/01 17:53:43;;;;;;;161.60;91.00;;;;;;;1.12;55.42;94154.25;5052809;28;20518;-85
2020/12/01 17:56:10;;;;;;;173.82;94.53;;;;;;;1.10;55.45;94151.06;5021109;28;20058;-85
2020/12/01 17:58:37;;;;;;;181.57;99.45;;;;;;;1.07;55.32;94154.91;5021770;28;20040;-85
2020/12/01 18:01:06;;;;;;;173.23;101.35;;;;;;;0.95;55.27;94143.66;5019890;28;20498;-84
2020/12/01 18:03:32;;;;;;;199.55;103.57;;;;;;;0.96;55.32;94134.84;5020296;28;20033;-85
2020/12/01 18:05:57;;;;;;;200.07;110.15;;;;;;;0.84;55.45;94126.19;5025838;28;20485;-85
2020/12/01 18:08:29;;;;;;;217.02;118.50;;;;;;;1.03;55.32;94158.97;5021606;28;20038;-85
2020/12/01 18:11:40;;;;;;;240.90;130.30;;;;;;;0.99;55.36;94160.41;5020715;28;20498;-85
2020/12/01 18:14:25;;;;;;;231.85;124.90;;;;;;;0.97;55.32;94154.66;5023784;28;20041;-84
2020/12/01 18:16:59;;;;;;;203.88;114.40;;;;;;;0.89;55.34;94149.75;5015631;28;20088;-85
2020/12/01 18:19:49;;;;;;;220.43;115.53;;;;;;;1.00;54.87;94164.63;5008786;28;20415;-85
2020/12/01 18:22:28;;;;;;;223.18;121.32;;;;;;;0.95;54.96;94163.69;5029245;28;20037;-85
2020/12/01 18:25:11;;;;;;;245.30;133.93;;;;;;;0.76;55.13;94144.72;5035983;28;20034;-85
2020/12/01 18:27:41;;;;;;;234.63;129.23;;;;;;;0.75;55.34;94161.31;5037471;28;20037;-85
2020/12/01 18:30:18;;;;;;;241.98;131.00;;;;;;;0.86;55.37;94171.00;5023165;28;20505;-85
2020/12/01 18:32:57;;;;;;;241.80;129.75;;;;;;;0.74;56.04;94170.13;5021336;28;20770;-85
2020/12/01 18:35:36;;;;;;;204.88;112.20;;;;;;;0.78;56.22;94173.91;5034984;28;20044;-85
2020/12/01 18:38:03;;;;;;;180.55;95.15;;;;;;;0.76;55.64;94174.13;5021120;28;20044;-85
2020/12/01 18:40:32;;;;;;;154.90;83.63;;;;;;;0.81;55.59;94191.69;5018959;28;20056;-85
2020/12/01 18:43:13;;;;;;;163.75;84.35;;;;;;;0.71;55.33;94178.38;5020824;28;20040;-85
2020/12/01 18:45:43;;;;;;;148.15;78.55;;;;;;;0.70;55.16;94192.41;5021768;28;20037;-85
2020/12/01 18:48:09;;;;;;;139.73;76.53;;;;;;;0.68;55.31;94189.25;5021098;28;20141;-85
2020/12/01 18:50:36;;;;;;;124.30;64.55;;;;;;;0.65;55.61;94184.47;5019765;28;20525;-85
2020/12/01 18:53:04;;;;;;;122.07;62.50;;;;;;;0.64;55.71;94185.47;5032516;28;20107;-85
2020/12/01 18:55:30;;;;;;;123.88;61.45;;;;;;;0.47;55.40;94172.28;5020397;28;20045;-85
2020/12/01 18:57:56;;;;;;;123.68;63.13;;;;;;;0.48;55.39;94162.66;5017721;28;20041;-85
2020/12/01 19:00:21;;;;;;;129.10;64.20;;;;;;;0.46;55.29;94162.06;5020948;28;20030;-85
2020/12/01 19:02:46;;;;;;;148.13;72.43;;;;;;;0.56;55.06;94175.38;5019447;28;20279;-85
2020/12/01 19:05:12;;;;;;;155.95;77.15;;;;;;;0.52;54.74;94161.22;5023246;28;20056;-85
2020/12/01 19:07:37;;;;;;;156.95;77.68;;;;;;;0.69;54.78;94190.81;5019741;28;20038;-85
2020/12/01 19:10:04;;;;;;;152.48;79.13;;;;;;;0.65;55.12;94193.06;5020364;28;20562;-85
2020/12/01 19:12:32;;;;;;;176.30;88.22;;;;;;;0.51;55.10;94183.03;5020393;28;20041;-84
2020/12/01 19:14:58;;;;;;;214.30;104.68;;;;;;;0.59;55.23;94193.13;5021909;28;20474;-85
2020/12/01 19:17:23;;;;;;;202.38;99.30;;;;;;;0.57;55.39;94190.75;5022630;28;20096;-85
2020/12/01 19:19:49;;;;;;;234.40;111.32;;;;;;;0.50;55.22;94171.81;5020613;28;20120;-85
2020/12/01 19:22:14;;;;;;;191.70;101.70;;;;;;;0.62;55.72;94195.31;5021097;28;20061;-85
2020/12/01 19:24:40;;;;;;;185.90;94.95;;;;;;;0.54;55.19;94177.41;5020948;28;20042;-84
2020/12/01 19:27:05;;;;;;;187.05;97.78;;;;;;;0.53;55.14;94175.81;5024058;28;20034;-85
2020/12/01 19:29:31;;;;;;;199.25;104.00;;;;;;;0.51;55.03;94188.22;5036302;28;20397;-85
2020/12/01 19:31:56;;;;;;;200.82;105.80;;;;;;;0.50;55.64;94191.81;5020898;28;20044;-85
2020/12/01 19:34:23;;;;;;;215.43;116.47;;;;;;;0.41;55.58;94173.94;5035794;28;20035;-85
2020/12/01 19:36:52;;;;;;;226.68;118.25;;;;;;;0.57;55.64;94200.38;5015285;28;20495;-85
2020/12/01 19:39:18;;;;;;;234.05;120.10;;;;;;;0.40;55.47;94172.34;5001252;28;20041;-85
2020/12/01 19:41:43;;;;;;;237.30;126.07;;;;;;;0.46;55.70;94185.47;5019347;28;25086;-85
2020/12/01 19:44:09;;;;;;;229.90;123.80;;;;;;;0.49;55.83;94203.25;5021273;28;20599;-85
2020/12/01 19:46:35;;;;;;;247.40;128.63;;;;;;;0.41;56.06;94191.31;5019609;28;20076;-85
2020/12/01 19:49:02;;;;;;;248.00;135.70;;;;;;;0.46;56.48;94209.69;5021067;28;20072;-85
2020/12/01 19:51:29;;;;;;;227.68;121.78;;;;;;;0.50;56.26;94203.03;5020208;28;20025;-85
2020/12/01 19:53:57;;;;;;;214.02;116.90;;;;;;;0.47;55.21;94197.47;5021112;28;20763;-85
2020/12/01 19:56:22;;;;;;;196.07;106.57;;;;;;;0.39;55.25;94191.53;5021057;28;20049;-84
2020/12/01 19:58:47;;;;;;;167.75;92.65;;;;;;;0.41;55.04;94205.13;5021052;28;20500;-86
2020/12/01 20:01:14;;;;;;;181.65;95.50;;;;;;;0.26;55.79;94178.69;5020919;28;20037;-85
2020/12/01 20:03:40;;;;;;;162.73;87.80;;;;;;;0.41;55.60;94209.53;5019664;28;20045;-84
2020/12/01 20:06:05;;;;;;;132.88;71.95;;;;;;;0.37;55.56;94209.16;5023437;28;20052;-85
2020/12/01 20:08:31;;;;;;;103.47;60.33;;;;;;;0.33;55.92;94191.63;5019183;28;20050;-85
2020/12/01 20:10:56;;;;;;;109.75;55.58;;;;;;;0.26;55.25;94191.69;5020611;28;20042;-85
2020/12/01 20:13:22;;;;;;;87.95;46.40;;;;;;;0.29;55.28;94206.06;5007589;28;20409;-85
2020/12/01 20:15:48;;;;;;;85.00;45.17;;;;;;;0.29;55.92;94206.84;5016113;28;20501;-85
2020/12/01 20:18:15;;;;;;;85.18;44.50;;;;;;;0.27;56.24;94198.47;5018451;28;20026;-84
2020/12/01 20:20:42;;;;;;;88.28;47.60;;;;;;;0.39;56.53;94217.53;5018415;28;20422;-85
2020/12/01 20:23:09;;;;;;;112.85;60.13;;;;;;;0.38;56.28;94215.16;5018944;28;20045;-85
2020/12/01 20:25:35;;;;;;;115.53;55.50;;;;;;;0.37;56.27;94222.16;5010119;28;20494;-84
2020/12/01 20:28:00;;;;;;;105.45;55.95;;;;;;;0.21;56.14;94199.31;5011165;28;20056;-85
2020/12/01 20:30:28;;;;;;;117.35;63.78;;;;;;;0.28;56.13;94204.47;5016987;28;21080;-85
2020/12/01 20:32:54;;;;;;;158.48;79.95;;;;;;;0.35;56.08;94218.97;5035214;28;20478;-85
2020/12/01 20:35:28;;;;;;;189.40;99.43;;;;;;;0.29;56.18;94217.22;5016990;28;20060;-85
2020/12/01 20:38:09;;;;;;;196.55;101.25;;;;;;;0.31;55.98;94215.22;5018616;28;20069;-85
2020/12/01 20:40:37;;;;;;;126.63;64.32;;;;;;;0.19;55.95;94197.97;5019647;28;20136;-85
2020/12/01 20:43:06;;;;;;;134.48;74.68;;;;;;;0.27;56.23;94211.47;5004413;28;20042;-85
2020/12/01 20:45:32;;;;;;;101.18;53.72;;;;;;;0.24;56.04;94192.91;5018981;28;24401;-84
2020/12/01 20:47:58;;;;;;;88.38;47.60;;;;;;;0.19;56.08;94196.16;5020318;28;20393;-85
2020/12/01 20:50:24;;;;;;;88.40;48.70;;;;;;;0.20;55.90;94205.53;5018956;28;20041;-84
2020/12/01 20:52:50;;;;;;;81.38;44.00;;;;;;;0.30;55.90;94221.44;5020302;28;20171;-84
2020/12/01 20:55:16;;;;;;;77.10;43.38;;;;;;;0.17;55.69;94205.97;5020695;28;20057;-84
2020/12/01 20:57:42;;;;;;;78.85;42.50;;;;;;;0.23;55.58;94204.31;5014397;28;20096;-85
2020/12/01 21:00:11;;;;;;;76.57;42.45;;;;;;;0.35;55.35;94224.19;5004798;28;20466;-85
2020/12/01 21:02:44;;;;;;;82.68;42.40;;;;;;;0.30;55.12;94224.03;5021548;28;20187;-84
2020/12/01 21:05:14;;;;;;;83.88;46.53;;;;;;;0.32;55.21;94218.63;5015135;28;20053;-85
2020/12/01 21:07:39;;;;;;;91.80;47.38;;;;;;;0.18;55.36;94207.56;5021600;28;20052;-85
2020/12/01 21:10:10;;;;;;;86.57;46.85;;;;;;;0.30;55.40;94229.22;5020348;28;20045;-85
2020/12/01 21:12:46;;;;;;;79.57;42.22;;;;;;;0.31;55.42;94230.81;5025436;28;20049;-86
2020/12/01 21:15:17;;;;;;;97.07;48.55;;;;;;;0.23;55.47;94220.72;5021965;28;20112;-85
2020/12/01 21:17:44;;;;;;;89.95;48.45;;;;;;;0.26;55.44;94217.66;5013520;28;20053;-85
2020/12/01 21:20:13;;;;;;;112.95;53.92;;;;;;;0.13;55.11;94197.03;5023303;28;20120;-85
2020/12/01 21:22:38;;;;;;;103.75;52.28;;;;;;;0.11;55.34;94209.41;5014929;28;20566;-85
2020/12/01 21:25:06;;;;;;;139.80;66.50;;;;;;;0.15;55.61;94201.97;5021550;28;20058;-85
2020/12/01 21:28:07;;;;;;;122.07;60.65;;;;;;;0.29;55.38;94227.63;5020404;28;21788;-85
2020/12/01 21:30:58;;;;;;;120.00;63.55;;;;;;;0.25;55.17;94234.28;5022658;28;20064;-85
2020/12/01 21:33:39;;;;;;;125.30;60.55;;;;;;;0.23;55.26;94228.50;5021559;28;20824;-84
2020/12/01 21:36:09;;;;;;;123.32;60.05;;;;;;;0.24;54.90;94219.72;5022341;28;20029;-85
2020/12/01 21:38:37;;;;;;;117.80;55.97;;;;;;;0.22;55.19;94226.91;5021946;28;20153;-85
2020/12/01 21:41:12;;;;;;;146.23;72.43;;;;;;;0.09;55.38;94210.66;5021739;28;20119;-85
2020/12/01 21:44:02;;;;;;;192.70;86.78;;;;;;;0.22;55.70;94210.53;5020552;28;20042;-85
2020/12/01 21:46:44;;;;;;;175.23;84.95;;;;;;;0.13;55.21;94207.41;5020134;28;20465;-85
2020/12/01 21:49:10;;;;;;;143.20;66.78;;;;;;;0.32;55.04;94224.63;5020464;28;20046;-85
2020/12/01 21:51:50;;;;;;;141.13;66.03;;;;;;;0.27;54.97;94229.66;5022465;28;20048;-85
2020/12/01 21:55:02;;;;;;;143.52;67.80;;;;;;;0.31;55.53;94230.03;5022535;28;20033;-85
2020/12/01 21:58:05;;;;;;;133.15;68.15;;;;;;;0.20;55.58;94215.94;5017661;28;20073;-85
2020/12/01 22:00:45;;;;;;;159.73;75.30;;;;;;;0.32;55.52;94236.81;5012547;28;20029;-85
2020/12/01 22:03:33;;;;;;;161.70;77.38;;;;;;;0.30;55.86;94231.81;5023465;28;20108;-85
2020/12/01 22:06:15;;;;;;;152.20;75.35;;;;;;;0.33;55.75;94236.63;5022419;28;20081;-85
2020/12/01 22:08:47;;;;;;;168.32;78.40;;;;;;;0.30;55.85;94237.03;5056970;28;20052;-85
2020/12/01 22:11:36;;;;;;;168.52;78.72;;;;;;;0.36;56.03;94230.19;5023673;28;20049;-85
2020/12/01 22:14:27;;;;;;;151.38;73.00;;;;;;;0.25;55.93;94221.28;5038290;28;20092;-85
2020/12/01 22:17:12;;;;;;;130.90;64.72;;;;;;;0.34;55.77;94235.59;5021623;28;20067;-84
2020/12/01 22:19:43;;;;;;;119.43;60.60;;;;;;;0.25;55.45;94221.28;5022478;28;20065;-85
2020/12/01 22:22:23;;;;;;;95.53;50.97;;;;;;;0.29;55.37;94239.84;5035012;28;20049;-84
2020/12/01 22:24:58;;;;;;;84.00;43.08;;;;;;;0.29;55.61;94232.06;5022439;28;20041;-84
2020/12/01 22:27:59;;;;;;;100.28;46.88;;;;;;;0.24;55.39;94229.31;5020689;28;20053;-85
2020/12/01 22:30:49;;;;;;;98.55;49.92;;;;;;;0.25;54.70;94216.06;5020300;28;20040;-85
2020/12/01 22:33:18;;;;;;;98.10;49.13;;;;;;;0.30;54.66;94224.03;5017350;28;20029;-85
2020/12/01 22:36:14;;;;;;;94.00;48.60;;;;;;;0.30;54.95;94228.44;5022039;28;20497;-85
2020/12/01 22:38:41;;;;;;;96.50;49.83;;;;;;;0.18;55.13;94207.56;5023288;28;20041;-85
2020/12/01 22:41:39;;;;;;;92.50;48.85;;;;;;;0.30;55.06;94231.81;5022045;28;20041;-85
2020/12/01 22:44:07;;;;;;;92.78;49.20;;;;;;;0.28;54.98;94227.88;5005618;28;20046;-85
2020/12/01 22:47:06;;;;;;;98.60;53.13;;;;;;;0.25;55.94;94226.47;5013105;28;20053;-85
2020/12/01 22:49:34;;;;;;;101.78;52.13;;;;;;;0.20;56.12;94234.13;5043858;28;20421;-85
2020/12/01 22:52:38;;;;;;;101.95;53.25;;;;;;;0.18;56.55;94237.97;5019349;28;20049;-85
2020/12/01 22:55:25;;;;;;;81.90;40.22;;;;;;;0.17;56.24;94233.75;5036612;28;20045;-85
2020/12/01 22:58:02;;;;;;;58.25;32.22;;;;;;;0.11;56.73;94230.22;5020927;28;20493;-85
2020/12/01 23:00:32;;;;;;;69.22;36.33;;;;;;;0.11;56.41;94225.00;4995464;28;20041;-85
2020/12/01 23:03:11;;;;;;;80.88;36.55;;;;;;;0.12;56.25;94223.22;5020116;28;20089;-85
2020/12/01 23:05:36;;;;;;;84.07;38.08;;;;;;;0.05;56.08;94209.50;5019558;28;20049;-84
2020/12/01 23:08:19;;;;;;;70.78;33.83;;;;;;;0.12;55.75;94216.22;5021125;28;20110;-85
2020/12/01 23:11:08;;;;;;;73.70;36.67;;;;;;;0.12;55.75;94224.00;5021821;28;20581;-85
2020/12/01 23:13:39;;;;;;;71.57;34.60;;;;;;;0.17;55.51;94216.38;5019143;28;20076;-85
2020/12/01 23:16:13;;;;;;;71.18;36.53;;;;;;;0.15;55.47;94215.78;5020989;28;20052;-85
2020/12/01 23:18:39;;;;;;;71.45;36.40;;;;;;;0.16;55.47;94221.78;5052363;28;20116;-85
2020/12/01 23:21:04;;;;;;;64.07;36.28;;;;;;;0.16;55.50;94212.16;5022419;28;20727;-85
2020/12/01 23:23:30;;;;;;;65.65;35.90;;;;;;;0.15;55.80;94212.38;5019850;28;20462;-85
2020/12/01 23:26:11;;;;;;;67.00;36.10;;;;;;;0.19;55.65;94216.97;5035177;28;20041;-85
2020/12/01 23:28:37;;;;;;;64.10;35.67;;;;;;;0.21;55.73;94221.91;5019329;28;20042;-85
2020/12/01 23:31:03;;;;;;;57.85;33.50;;;;;;;0.08;55.54;94201.25;5012877;28;20553;-85
2020/12/01 23:33:32;;;;;;;67.78;36.17;;;;;;;0.15;55.56;94204.56;5002930;28;20033;-85
2020/12/01 23:35:59;;;;;;;66.00;35.08;;;;;;;0.14;55.62;94200.41;5020756;28;20021;-85
2020/12/01 23:38:30;;;;;;;69.80;38.50;;;;;;;0.20;55.55;94221.13;5021723;28;20045;-85
2020/12/01 23:40:58;;;;;;;67.63;36.70;;;;;;;0.19;55.93;94211.75;5018922;28;20037;-85
2020/12/01 23:43:49;;;;;;;66.38;36.42;;;;;;;0.26;55.82;94217.66;5032810;28;20056;-85
2020/12/01 23:46:20;;;;;;;60.10;32.03;;;;;;;0.22;56.03;94218.31;5018645;28;20056;-85
2020/12/01 23:48:53;;;;;;;73.13;36.88;;;;;;;0.22;56.18;94219.13;5020870;28;20038;-85
2020/12/01 23:51:24;;;;;;;53.92;32.50;;;;;;;0.13;55.81;94191.03;5025031;28;20567;-86
2020/12/01 23:53:49;;;;;;;58.50;30.60;;;;;;;0.27;55.32;94208.88;5034774;28;20437;-86
2020/12/01 23:56:16;;;;;;;48.03;28.85;;;;;;;0.11;54.79;94191.22;5021676;28;20606;-85
2020/12/01 23:58:42;;;;;;;43.92;26.73;;;;;;;0.15;54.98;94205.38;5020535;28;20069;-85
